OIFS 
Shahrekord Airport
Shahrekord, Iran 
ICAOIATAStatus
OIFSCQDOperational
LatitudeLongitude
32° 17' 49" N50° 50' 31" E
32.29719950.842201
Local Time (DST+5)UTC (GMT+4)
04-16-2014 05:40 pm04-16-2014 13:10
Sunrise-SunsetLocalUTC
Begin Civil Twilight06:09 am01:39
Sunrise06:34 am02:04
Sunset07:38 pm15:08
End Civil Twilight08:03 pm15:33

Current Weather

METARObservedFlight Conditions

OIFS 161200Z 27008KT 9999 SCT040 20/M01 Q1023

Wed, Apr 16, 2014 @ 12:00 UTC(Z)

(1 Hour, 10 Minutes ago)

VFR

(Visual Flight Rules)

WindVisibilityCloudsConditions
270° at 8 knots (15 kph)
10 km or more
  • Scattered at 4,000' AGL
  • No significant weather
TemperaturesReadingsPrecipitation
Current Temp20°C (68°F)
Dewpoint-1°C (30°F)
Humidity24%
Altimeter30.21"Hg
Sea Level Pressure1023mb
Field Elevation6817.59'
None Recorded

Additional weather within a 185.2km radius of OIFS

Location METAR
OIFM

108km E (062°)

40 minutes ago
VFR VFR    MVFR MVFR    IFR IFR    LIFR LIFR    Unknown Unknown

Previous 24 hour Weather Graphs

  Loading...

CheckWX.com is intended as a tool to help pilots better visualize weather data.   It is not intended as a substitute for an official weather briefing obtained from a Flight Service Station.
CheckWX.com does not meet the FAA requirements for an official pre-flight weather briefing.   Therefore, it's important that pilots still call and obtain an official FSS pre-flight weather briefing.